首页
METAR-TAF:

METAR-TAF

机场 :

Air Force Base

Langley, 弗吉尼亚州, 美国

纬度: 37-05N, 经度: 076-21W, 海拔: 3米

当前天气观测

该预报发布于39分钟前的12:56 UTC
风速8节,风向北转东北
温度 7°C
湿度 76%
气压 1025 hPa
能見度: 16.1公里
天空无云

METAR: KLFI 171256Z AUTO 03008KT 10SM CLR 07/03 A3028 RMK AO2 SLP261 T00680029 $

时间: 08:35 (13:35 UTC)

预报

该预报发布于3小时和35分钟前的10:00 UTC
预报有效从17日的 10点(UTC)到 18日的 16点(UTC)
风速6节,风向北转西北
能见度10公里或以上
天空无云
成为
从 18日的 10点(UTC)到 18日的 11点(UTC)
风速6节,风向多变
能见度10公里或以上
多云层高于2000英尺
成为
从 18日的 14点(UTC)到 18日的 15点(UTC)
风速6节,风向多变
能见度10公里或以上
散云层高于2000英尺

TAF: KLFI 171000Z 1710/1816 34006KT 9999 SKC QNH3017INS BECMG 1810/1811 VRB06KT 9999 BKN020 QNH3034INS BECMG 1814/1815 VRB06KT 9999 SCT020 QNH3036INS TX10/1721Z TN02/1710Z

超过4000个机场的气象观测和天气预报(METAR&TAF报告)。

可查询的气象台以黄色和红色小点在地图上表示。

将鼠标移到小点上方,可查看气象台名称。

然后点击查看天气观测和预报。

如需切换地图:点击带黑十字的绿色按钮放大地图;点击带横线的绿色按钮缩小地图;或者点击绿色箭头查看邻近地区的地图。


METAR-TAF: